Enter the Airport ICAO Code

Search by Airport or City

Current Weather

SBRF | Recife/Guararapes–Gilberto Freyre International Airport

Recife, Pernambuco, Brazil

Last Update 17 Minutes Ago

Rain Shower

Temperature of 26 ºC

Light to Moderate Winds from SouthEast

Temperature

26 ºC

Dew Point Temperature

23 ºC

Relative Humidity

83.66 %

Wind Direction

SouthEast (130º, Without Significant Variations)

Wind Velocity

17 km/h (09 kt)

Gusts

None

Visibility

Reduced to 9.0 Kilometers

Sea Level Pressure

1012 hPa (Hectopascals)

Layers of Clouds

5% to 30% of Sky Covered from 396 mts (1300 ft) Above Ground Level.

30% to 60% of Sky Covered from 518 mts (1700 ft) Above Ground Level.

60% to 90% of Sky Covered from 1676 mts (5500 ft) Above Ground Level.

METAR SBRF 160700Z 13009KT 9000 VCSH FEW013 SCT017 BKN055 26/23 Q1012

Weather Forecast

SBRF | Recife/Guararapes–Gilberto Freyre International Airport

Recife, Pernambuco, Brazil

Forecast valid for the next 23 Hours

In the next hour it is expected the begining of:

Moderate Winds from SouthEast

Maximum Temperature

30 ºC in 7 Hours

Minimum Temperature

27 ºC in -1 Hours

TAF SBRF 160400Z 1606/1706 09008KT 9999 SCT023 TN27/1606Z TX30/1614Z BECMG 1606/1608 12010KT RMK PEH